createdAt,value
2023-03-24T00:02:08.665Z,24.20
2023-03-24T00:04:36.905Z,25.10
2023-03-24T00:07:05.842Z,35.10
2023-03-24T00:09:34.120Z,24.90
2023-03-24T00:12:02.099Z,25.50
2023-03-24T00:14:38.792Z,20.90
2023-03-24T00:17:09.528Z,27.10
2023-03-24T00:19:38.605Z,25.80
2023-03-24T00:22:08.220Z,23.10
2023-03-24T00:24:36.554Z,23.20
2023-03-24T00:27:04.638Z,23.90
2023-03-24T00:29:36.211Z,97.40
2023-03-24T00:32:04.817Z,30.10
2023-03-24T00:34:34.389Z,42.30
2023-03-24T00:37:02.561Z,54.30
2023-03-24T00:39:30.622Z,29.60
2023-03-24T00:42:01.889Z,50.40
2023-03-24T00:44:30.058Z,22.30
2023-03-24T00:46:58.195Z,24.50
2023-03-24T00:49:43.055Z,22.80
2023-03-24T00:52:20.767Z,23.10
2023-03-24T00:54:55.441Z,20.60
2023-03-24T00:57:23.457Z,23.00
2023-03-24T00:59:54.580Z,20.00
2023-03-24T01:02:25.007Z,21.70
2023-03-24T01:04:58.220Z,23.00
2023-03-24T01:07:27.009Z,21.80
2023-03-24T01:09:57.955Z,24.00
2023-03-24T01:12:32.125Z,17.70
2023-03-24T01:15:01.205Z,24.80
2023-03-24T01:17:31.084Z,23.50
2023-03-24T01:19:59.132Z,23.80
2023-03-24T01:22:29.029Z,20.50
2023-03-24T01:24:58.020Z,27.20
2023-03-24T01:27:26.084Z,21.30
2023-03-24T01:29:59.900Z,19.50
2023-03-24T01:32:29.525Z,21.00
2023-03-24T01:34:57.918Z,21.10
2023-03-24T01:37:26.272Z,23.20
2023-03-24T01:39:54.220Z,25.70
2023-03-24T01:42:24.175Z,24.80
2023-03-24T01:44:55.123Z,22.30
2023-03-24T01:47:23.065Z,23.50
2023-03-24T01:49:57.151Z,21.20
2023-03-24T01:52:32.770Z,20.90
2023-03-24T01:55:14.286Z,23.40
2023-03-24T01:57:44.682Z,22.60
2023-03-24T02:00:15.165Z,22.00
2023-03-24T02:03:08.014Z,23.90
2023-03-24T02:05:41.090Z,24.50
2023-03-24T02:08:39.212Z,21.50
2023-03-24T02:11:07.732Z,24.10
2023-03-24T02:13:43.575Z,20.90
2023-03-24T02:16:15.112Z,25.50
2023-03-24T02:19:25.090Z,26.40
2023-03-24T02:22:35.342Z,21.20
2023-03-24T02:25:16.529Z,19.90
2023-03-24T02:28:02.864Z,23.30
2023-03-24T02:31:08.740Z,19.80
2023-03-24T02:34:07.384Z,31.80
2023-03-24T02:37:00.575Z,19.90
2023-03-24T02:39:56.962Z,22.10
2023-03-24T02:42:41.017Z,57.30
2023-03-24T02:45:24.618Z,23.40
2023-03-24T02:48:05.551Z,23.20
2023-03-24T02:50:58.438Z,17.70
2023-03-24T02:53:50.068Z,22.20
2023-03-24T02:56:58.579Z,19.20
2023-03-24T02:59:45.049Z,16.10
2023-03-24T03:03:12.680Z,23.50
2023-03-24T03:05:53.919Z,24.40
2023-03-24T03:08:24.485Z,20.20
2023-03-24T03:10:52.620Z,20.90
2023-03-24T03:13:28.596Z,20.40
2023-03-24T03:15:58.972Z,22.90
2023-03-24T03:18:31.191Z,20.10
2023-03-24T03:21:04.684Z,16.60
2023-03-24T03:23:41.353Z,24.20
2023-03-24T03:26:12.512Z,16.90
2023-03-24T03:28:50.263Z,20.40
2023-03-24T03:31:23.964Z,22.40
2023-03-24T03:33:59.916Z,19.80
2023-03-24T03:36:30.355Z,22.40
2023-03-24T03:39:16.330Z,18.10
2023-03-24T03:41:45.735Z,19.30
2023-03-24T03:44:14.257Z,16.20
2023-03-24T03:46:43.498Z,20.00
2023-03-24T03:49:13.716Z,16.90
2023-03-24T03:51:47.544Z,19.80
2023-03-24T03:54:15.549Z,18.70
2023-03-24T03:56:46.758Z,20.00
2023-03-24T03:59:39.073Z,16.50
2023-03-24T04:02:17.162Z,19.00
2023-03-24T04:05:05.230Z,20.60
2023-03-24T04:08:18.851Z,24.40
2023-03-24T04:11:26.180Z,21.70
2023-03-24T04:14:37.980Z,19.60
2023-03-24T04:17:39.281Z,23.50
2023-03-24T04:20:17.073Z,24.00
2023-03-24T04:23:26.522Z,21.30
2023-03-24T04:26:26.780Z,23.40
2023-03-24T04:29:18.298Z,18.80
2023-03-24T04:31:54.086Z,20.30
2023-03-24T04:34:26.184Z,23.20
2023-03-24T04:37:12.545Z,20.90
2023-03-24T04:40:13.233Z,18.80
2023-03-24T04:42:46.973Z,19.10
2023-03-24T04:45:15.437Z,22.10
2023-03-24T04:48:04.759Z,16.40
2023-03-24T04:50:51.488Z,18.70
2023-03-24T04:53:23.829Z,21.20
2023-03-24T04:56:36.684Z,17.40
2023-03-24T04:59:13.043Z,22.10
2023-03-24T05:01:42.031Z,20.90
2023-03-24T05:04:41.918Z,19.60
2023-03-24T05:07:29.291Z,21.70
2023-03-24T05:09:59.712Z,16.90
2023-03-24T05:12:35.617Z,19.90
2023-03-24T05:15:28.481Z,20.60
2023-03-24T05:18:03.795Z,21.50
2023-03-24T05:20:32.320Z,21.10
2023-03-24T05:23:08.505Z,22.90
2023-03-24T05:25:36.470Z,23.20
2023-03-24T05:28:05.694Z,22.70
2023-03-24T05:30:33.994Z,23.40
2023-03-24T05:33:12.181Z,25.00
2023-03-24T05:35:40.943Z,18.70
2023-03-24T05:38:13.486Z,19.70
2023-03-24T05:40:43.272Z,23.10
2023-03-24T05:43:14.689Z,18.00
2023-03-24T05:45:50.076Z,20.40
2023-03-24T05:48:29.227Z,17.70
2023-03-24T05:53:28.616Z,19.40
2023-03-24T05:56:26.236Z,23.70
2023-03-24T05:59:14.876Z,21.20
2023-03-24T06:02:01.929Z,22.70
2023-03-24T06:04:49.297Z,20.90
2023-03-24T06:07:22.253Z,26.00
2023-03-24T06:09:52.928Z,20.90
2023-03-24T06:12:23.493Z,20.90
2023-03-24T06:15:02.410Z,21.90
2023-03-24T06:17:34.003Z,38.70
2023-03-24T06:20:15.019Z,58.50
2023-03-24T06:22:59.255Z,23.40
2023-03-24T06:25:30.264Z,21.60
2023-03-24T06:28:20.819Z,21.20
2023-03-24T06:30:49.684Z,23.50
2023-03-24T06:33:26.013Z,21.90
2023-03-24T06:35:55.119Z,24.30
2023-03-24T06:38:23.712Z,20.90
2023-03-24T06:40:52.381Z,22.60
2023-03-24T06:43:20.424Z,20.10
2023-03-24T06:45:52.996Z,19.00
2023-03-24T06:48:24.266Z,19.20
2023-03-24T06:50:55.149Z,22.60
2023-03-24T06:53:25.967Z,22.30
2023-03-24T06:55:54.222Z,24.50
2023-03-24T06:58:24.091Z,26.60
2023-03-24T07:01:05.995Z,22.50
2023-03-24T07:04:04.813Z,22.50
2023-03-24T07:09:32.744Z,18.00
2023-03-24T07:12:04.980Z,21.00
2023-03-24T07:14:34.391Z,20.00
2023-03-24T07:17:02.675Z,20.60
2023-03-24T07:19:40.560Z,22.40
2023-03-24T07:22:47.898Z,23.50
2023-03-24T07:25:41.244Z,25.80
2023-03-24T07:28:20.650Z,26.80
2023-03-24T07:30:50.213Z,27.00
2023-03-24T07:33:21.071Z,24.00
2023-03-24T07:35:49.458Z,20.10
2023-03-24T07:38:21.490Z,21.90
2023-03-24T07:40:51.029Z,18.20
2023-03-24T07:43:19.141Z,28.50
2023-03-24T07:46:02.396Z,22.70
2023-03-24T07:48:32.936Z,20.60
2023-03-24T07:51:03.100Z,21.40
2023-03-24T07:53:53.913Z,20.10
2023-03-24T07:56:27.705Z,22.60
2023-03-24T07:58:57.796Z,22.80
2023-03-24T08:01:57.814Z,24.30
2023-03-24T08:04:42.976Z,21.70
2023-03-24T08:07:30.382Z,22.40
2023-03-24T08:09:58.385Z,22.30
2023-03-24T08:12:27.512Z,21.80
2023-03-24T08:14:55.715Z,21.30
2023-03-24T08:17:24.438Z,22.70
2023-03-24T08:19:59.494Z,23.30
2023-03-24T08:22:30.369Z,20.70
2023-03-24T08:24:58.319Z,24.80
2023-03-24T08:27:29.003Z,25.80
2023-03-24T08:29:57.203Z,22.60
2023-03-24T08:32:25.490Z,25.30
2023-03-24T08:34:54.403Z,25.10
2023-03-24T08:37:22.427Z,26.00
2023-03-24T08:39:51.408Z,21.10
2023-03-24T08:42:19.506Z,23.70
2023-03-24T08:44:49.915Z,27.00
2023-03-24T08:47:18.530Z,25.20
2023-03-24T08:49:46.949Z,27.30
2023-03-24T08:52:16.759Z,23.90
2023-03-24T08:54:45.273Z,26.70
2023-03-24T08:57:13.381Z,24.30
2023-03-24T08:59:41.634Z,23.30
2023-03-24T09:02:11.751Z,21.40
2023-03-24T09:04:43.050Z,22.10
2023-03-24T09:07:11.908Z,19.80
2023-03-24T09:09:40.226Z,19.90
2023-03-24T09:12:09.932Z,21.90
2023-03-24T09:14:38.476Z,18.00
2023-03-24T09:17:07.029Z,19.40
2023-03-24T09:19:35.322Z,21.50
2023-03-24T09:22:03.532Z,18.60
2023-03-24T09:24:32.101Z,18.00
2023-03-24T09:27:00.770Z,19.90
2023-03-24T09:29:30.187Z,20.70
2023-03-24T09:32:04.968Z,19.00
2023-03-24T09:34:33.876Z,18.60
2023-03-24T09:37:02.056Z,20.20
2023-03-24T09:39:31.557Z,21.70
2023-03-24T09:42:01.381Z,17.90
2023-03-24T09:44:43.580Z,21.00
2023-03-24T09:47:59.352Z,26.00
2023-03-24T09:50:29.629Z,23.00
2023-03-24T09:53:00.943Z,21.60
2023-03-24T09:55:29.722Z,20.40
2023-03-24T09:58:04.032Z,22.10
2023-03-24T10:00:34.649Z,18.30
2023-03-24T10:03:21.209Z,17.20
2023-03-24T10:06:02.095Z,20.40
2023-03-24T10:08:50.598Z,20.60
2023-03-24T10:11:21.704Z,21.50
2023-03-24T10:14:25.638Z,17.60
2023-03-24T10:16:58.850Z,16.00
2023-03-24T10:19:45.593Z,18.80
2023-03-24T10:22:29.685Z,19.00
2023-03-24T10:25:06.652Z,18.60
2023-03-24T10:27:55.362Z,18.10
2023-03-24T10:30:29.403Z,16.30
2023-03-24T10:35:29.937Z,14.60
2023-03-24T10:37:59.505Z,16.90
2023-03-24T10:40:33.540Z,20.00
2023-03-24T10:43:06.662Z,18.60
2023-03-24T10:45:44.314Z,17.60
2023-03-24T10:48:14.281Z,15.30
2023-03-24T10:50:44.703Z,18.90
2023-03-24T10:53:19.866Z,15.90
2023-03-24T10:55:48.377Z,14.10
2023-03-24T10:58:37.558Z,14.30
2023-03-24T11:01:27.321Z,16.60
2023-03-24T11:04:05.555Z,13.70
2023-03-24T11:06:34.204Z,11.50
2023-03-24T11:09:28.569Z,9.30
2023-03-24T11:11:59.825Z,10.40
2023-03-24T11:14:28.962Z,11.80
2023-03-24T11:17:11.667Z,11.80
2023-03-24T11:19:40.031Z,15.40
2023-03-24T11:22:09.918Z,14.70
2023-03-24T11:24:39.041Z,12.20
2023-03-24T11:27:07.757Z,13.60
2023-03-24T11:29:39.244Z,14.00
2023-03-24T11:32:16.817Z,15.10
2023-03-24T11:34:46.964Z,13.10
2023-03-24T11:37:22.319Z,15.80
2023-03-24T11:40:21.337Z,11.70
2023-03-24T11:43:00.890Z,12.50
2023-03-24T11:45:39.228Z,11.50
2023-03-24T11:48:26.976Z,11.30
2023-03-24T11:50:56.407Z,10.40
2023-03-24T11:53:30.882Z,11.40
2023-03-24T11:56:17.202Z,12.40
2023-03-24T11:58:47.521Z,13.20
2023-03-24T12:01:22.301Z,13.10
2023-03-24T12:03:59.529Z,11.60
2023-03-24T12:06:52.503Z,9.90
2023-03-24T12:09:39.843Z,9.90
2023-03-24T12:12:30.765Z,8.50
2023-03-24T12:15:27.170Z,9.50
2023-03-24T12:18:09.651Z,11.90
2023-03-24T12:20:58.493Z,8.40
2023-03-24T12:23:38.350Z,9.00
2023-03-24T12:26:17.493Z,11.50
2023-03-24T12:29:17.754Z,9.80
2023-03-24T12:32:04.754Z,12.10
2023-03-24T12:34:43.351Z,11.00
2023-03-24T12:37:20.935Z,9.70
2023-03-24T12:39:59.811Z,9.20
2023-03-24T12:42:31.957Z,9.70
2023-03-24T12:45:05.141Z,9.60
2023-03-24T12:48:09.618Z,7.70
2023-03-24T12:51:07.182Z,8.10
2023-03-24T12:53:54.049Z,9.60
2023-03-24T12:56:33.768Z,10.50
2023-03-24T12:59:23.954Z,10.30
2023-03-24T13:01:56.186Z,8.90
2023-03-24T13:04:29.550Z,10.80
2023-03-24T13:07:14.669Z,10.60
2023-03-24T13:09:57.193Z,10.90
2023-03-24T13:12:33.327Z,8.20
2023-03-24T13:15:10.282Z,7.60
2023-03-24T13:17:40.687Z,8.80
2023-03-24T13:20:13.802Z,11.70
2023-03-24T13:22:42.324Z,9.80
2023-03-24T13:25:36.430Z,9.00
2023-03-24T13:28:07.214Z,13.00
2023-03-24T13:30:41.719Z,12.20
2023-03-24T13:33:26.560Z,8.10
2023-03-24T13:36:21.638Z,9.80
2023-03-24T13:38:54.785Z,8.80
2023-03-24T13:41:24.711Z,9.70
2023-03-24T13:44:17.753Z,10.40
2023-03-24T13:47:15.312Z,10.70
2023-03-24T13:49:53.849Z,8.30
2023-03-24T13:52:35.293Z,8.90
2023-03-24T13:55:27.570Z,9.60
2023-03-24T13:57:57.318Z,11.90
2023-03-24T14:00:26.660Z,10.40
2023-03-24T14:02:56.765Z,12.00
2023-03-24T14:05:44.139Z,14.70
2023-03-24T14:08:16.153Z,8.20
2023-03-24T14:10:48.456Z,7.80
2023-03-24T14:13:16.624Z,9.50
2023-03-24T14:15:58.498Z,8.60
2023-03-24T14:18:29.335Z,10.50
2023-03-24T14:20:57.657Z,12.90
2023-03-24T14:23:43.468Z,9.40
2023-03-24T14:26:16.555Z,10.10
2023-03-24T14:28:46.751Z,9.60
2023-03-24T14:31:30.959Z,12.20
2023-03-24T14:34:05.978Z,11.00
2023-03-24T14:36:42.089Z,10.10
2023-03-24T14:39:24.022Z,10.30
2023-03-24T14:41:52.807Z,10.40
2023-03-24T14:44:55.406Z,10.90
2023-03-24T14:47:31.123Z,13.20
2023-03-24T14:50:01.241Z,12.80
2023-03-24T14:52:43.592Z,9.80
2023-03-24T14:55:21.851Z,13.90
2023-03-24T14:58:23.931Z,11.30
2023-03-24T15:01:07.273Z,15.30
2023-03-24T15:03:49.775Z,12.20
2023-03-24T15:06:23.474Z,18.30
2023-03-24T15:09:14.004Z,18.10
2023-03-24T15:11:42.161Z,15.70
2023-03-24T15:14:16.379Z,19.50
2023-03-24T15:16:51.844Z,13.90
2023-03-24T15:19:25.662Z,13.90
2023-03-24T15:22:11.693Z,12.60
2023-03-24T15:24:43.044Z,11.20
2023-03-24T15:27:33.732Z,13.80
2023-03-24T15:30:01.893Z,11.80
2023-03-24T15:32:39.126Z,12.40
2023-03-24T15:35:08.895Z,13.40
2023-03-24T15:37:42.932Z,13.00
2023-03-24T15:40:27.152Z,16.40
2023-03-24T15:42:57.750Z,14.30
2023-03-24T15:45:31.181Z,12.60
2023-03-24T15:48:08.337Z,17.30
2023-03-24T15:50:38.817Z,16.50
2023-03-24T15:53:24.996Z,14.80
2023-03-24T15:56:04.249Z,15.10
2023-03-24T15:58:45.827Z,16.60
2023-03-24T16:01:20.081Z,16.40
2023-03-24T16:03:48.858Z,18.00
2023-03-24T16:06:30.889Z,16.30
2023-03-24T16:09:00.390Z,18.90
2023-03-24T16:11:30.111Z,16.40
2023-03-24T16:14:22.012Z,17.00
2023-03-24T16:16:54.210Z,19.00
2023-03-24T16:19:22.466Z,15.60
2023-03-24T16:21:51.103Z,17.40
2023-03-24T16:24:19.014Z,16.60
2023-03-24T16:26:47.313Z,15.40
2023-03-24T16:29:21.942Z,19.40
2023-03-24T16:31:51.913Z,15.50
2023-03-24T16:34:21.787Z,18.40
2023-03-24T16:36:52.291Z,18.30
2023-03-24T16:39:25.116Z,25.70
2023-03-24T16:41:54.215Z,19.40
2023-03-24T16:44:22.638Z,19.40
2023-03-24T16:46:51.920Z,21.10
2023-03-24T16:49:20.104Z,19.70
2023-03-24T16:51:48.484Z,22.90
2023-03-24T16:54:24.077Z,18.60
2023-03-24T16:56:52.322Z,19.70
2023-03-24T16:59:20.885Z,21.40
2023-03-24T17:01:52.296Z,22.60
2023-03-24T17:04:22.353Z,18.50
2023-03-24T17:06:55.368Z,19.90
2023-03-24T17:09:24.353Z,19.90
2023-03-24T17:11:53.891Z,21.00
2023-03-24T17:14:23.842Z,21.40
2023-03-24T17:16:53.787Z,23.50
2023-03-24T17:19:22.788Z,22.40
2023-03-24T17:21:58.796Z,20.30
2023-03-24T17:24:28.343Z,24.90
2023-03-24T17:26:56.706Z,22.80
2023-03-24T17:29:24.928Z,20.40
2023-03-24T17:31:53.853Z,25.60
2023-03-24T17:34:28.807Z,20.70
2023-03-24T17:36:56.974Z,20.00
2023-03-24T17:39:25.000Z,21.60
2023-03-24T17:42:01.322Z,24.00
2023-03-24T17:44:29.712Z,26.30
2023-03-24T17:46:59.630Z,23.70
2023-03-24T17:49:47.526Z,21.30
2023-03-24T17:52:16.213Z,19.00
2023-03-24T17:54:45.885Z,24.00
2023-03-24T17:57:14.606Z,21.90
2023-03-24T17:59:44.112Z,23.30
2023-03-24T18:02:12.986Z,29.60
2023-03-24T18:04:41.375Z,20.70
2023-03-24T18:10:11.348Z,23.20
2023-03-24T18:12:39.653Z,21.70
2023-03-24T18:15:09.363Z,26.80
2023-03-24T18:17:37.596Z,24.20
2023-03-24T18:20:11.279Z,25.70
2023-03-24T18:22:41.801Z,31.40
2023-03-24T18:25:11.234Z,25.20
2023-03-24T18:27:45.754Z,22.40
2023-03-24T18:30:16.281Z,29.00
2023-03-24T18:32:44.590Z,24.60
2023-03-24T18:35:18.519Z,28.00
2023-03-24T18:37:46.481Z,31.40
2023-03-24T18:40:15.938Z,28.00
2023-03-24T18:42:45.086Z,22.10
2023-03-24T18:45:18.549Z,25.80
2023-03-24T18:47:47.991Z,28.40
2023-03-24T18:50:16.725Z,26.70
2023-03-24T18:52:49.872Z,24.50
2023-03-24T18:55:18.618Z,21.90
2023-03-24T18:57:46.783Z,27.20
2023-03-24T19:00:15.467Z,21.30
2023-03-24T19:02:44.518Z,27.80
2023-03-24T19:05:14.248Z,24.60
2023-03-24T19:07:42.952Z,21.50
2023-03-24T19:10:11.847Z,23.80
2023-03-24T19:12:40.029Z,21.30
2023-03-24T19:15:13.568Z,24.10
2023-03-24T19:17:42.681Z,23.50
2023-03-24T19:20:11.827Z,23.40
2023-03-24T19:22:41.745Z,24.40
2023-03-24T19:25:09.937Z,22.30
2023-03-24T19:27:47.821Z,24.20
2023-03-24T19:30:17.247Z,24.60
2023-03-24T19:32:48.086Z,26.60
2023-03-24T19:35:21.176Z,25.10
2023-03-24T19:37:49.626Z,27.00
2023-03-24T19:40:23.124Z,22.50
2023-03-24T19:42:51.191Z,23.90
2023-03-24T19:45:20.197Z,27.20
2023-03-24T19:47:48.337Z,26.20
2023-03-24T19:50:17.603Z,33.90
2023-03-24T19:52:50.644Z,25.90
2023-03-24T19:55:19.770Z,26.10
2023-03-24T19:57:47.839Z,25.40
2023-03-24T20:00:16.915Z,23.60
2023-03-24T20:02:45.843Z,24.60
2023-03-24T20:05:14.904Z,23.50
2023-03-24T20:07:43.694Z,30.30
2023-03-24T20:10:11.866Z,26.80
2023-03-24T20:12:45.381Z,22.60
2023-03-24T20:15:15.505Z,24.10
2023-03-24T20:17:43.974Z,22.70
2023-03-24T20:20:15.755Z,25.20
2023-03-24T20:22:48.764Z,27.80
2023-03-24T20:25:18.387Z,24.80
2023-03-24T20:27:47.632Z,26.70
2023-03-24T20:30:20.167Z,24.30
2023-03-24T20:32:48.879Z,24.10
2023-03-24T20:35:18.478Z,23.20
2023-03-24T20:37:47.224Z,24.30
2023-03-24T20:40:15.639Z,22.10
2023-03-24T20:42:47.095Z,23.30
2023-03-24T20:45:15.504Z,22.30
2023-03-24T20:47:44.362Z,21.20
2023-03-24T20:50:12.539Z,21.90
2023-03-24T20:55:36.053Z,25.10
2023-03-24T20:58:08.418Z,21.40
2023-03-24T21:00:42.035Z,20.00
2023-03-24T21:03:11.882Z,20.40
2023-03-24T21:05:39.949Z,21.70
2023-03-24T21:08:08.125Z,23.30
2023-03-24T21:10:36.655Z,25.10
2023-03-24T21:13:08.617Z,24.40
2023-03-24T21:15:44.268Z,27.80
2023-03-24T21:18:18.584Z,29.00
2023-03-24T21:20:57.440Z,25.40
2023-03-24T21:23:25.651Z,27.20
2023-03-24T21:25:56.435Z,22.10
2023-03-24T21:28:28.210Z,22.90
2023-03-24T21:30:58.603Z,17.80
2023-03-24T21:33:26.676Z,21.50
2023-03-24T21:35:55.707Z,22.40
2023-03-24T21:38:24.195Z,17.90
2023-03-24T21:40:58.990Z,22.50
2023-03-24T21:43:29.326Z,19.50
2023-03-24T21:45:57.697Z,25.50
2023-03-24T21:48:28.252Z,20.00
2023-03-24T21:50:56.707Z,21.70
2023-03-24T21:53:26.246Z,20.20
2023-03-24T21:55:55.751Z,21.10
2023-03-24T21:58:24.420Z,21.50
2023-03-24T22:00:52.481Z,22.70
2023-03-24T22:03:22.948Z,23.60
2023-03-24T22:05:51.722Z,19.70
2023-03-24T22:08:22.764Z,20.70
2023-03-24T22:10:54.386Z,20.80
2023-03-24T22:13:27.577Z,21.20
2023-03-24T22:15:59.622Z,21.50
2023-03-24T22:18:28.760Z,22.00
2023-03-24T22:21:06.920Z,20.50
2023-03-24T22:23:38.842Z,17.60
2023-03-24T22:26:11.750Z,23.20
2023-03-24T22:28:40.584Z,16.60
2023-03-24T22:31:10.317Z,18.80
2023-03-24T22:33:38.552Z,21.40
2023-03-24T22:36:08.158Z,20.40
2023-03-24T22:38:36.319Z,19.60
2023-03-24T22:41:12.109Z,17.80
2023-03-24T22:43:42.089Z,20.40
2023-03-24T22:46:10.690Z,22.30
2023-03-24T22:48:40.314Z,24.30
2023-03-24T22:51:09.657Z,26.50
2023-03-24T22:56:12.010Z,24.20
2023-03-24T22:58:40.329Z,24.70
2023-03-24T23:01:10.605Z,23.60
2023-03-24T23:03:39.032Z,20.80
2023-03-24T23:06:15.991Z,23.50
2023-03-24T23:08:44.865Z,23.30
2023-03-24T23:11:14.259Z,25.10
2023-03-24T23:14:06.782Z,19.20
2023-03-24T23:16:38.030Z,20.60
2023-03-24T23:19:09.599Z,18.30
2023-03-24T23:21:39.394Z,23.00
2023-03-24T23:24:07.592Z,21.50
2023-03-24T23:26:39.361Z,20.50
2023-03-24T23:29:07.590Z,20.10
2023-03-24T23:31:37.028Z,20.30
2023-03-24T23:34:11.342Z,19.90
2023-03-24T23:36:49.922Z,18.80
2023-03-24T23:39:18.391Z,19.30
2023-03-24T23:41:46.508Z,20.00
2023-03-24T23:44:15.108Z,20.70
2023-03-24T23:46:45.547Z,18.60
2023-03-24T23:49:13.610Z,21.40
2023-03-24T23:51:41.686Z,20.00
2023-03-24T23:54:09.615Z,17.30
2023-03-24T23:56:40.627Z,17.70
2023-03-24T23:59:09.990Z,24.80
